Time;durP1;ratioP1;P1;durP2;ratioP2;P2;SDS_P1;SDS_P2;PMS_P1;PMS_P2;Temp;Humidity;BMP_temperature;BMP_pressure;BME280_temperature;BME280_humidity;BME280_pressure;Samples;Min_cycle;Max_cycle;Signal;HPM_P1;HPM_P2
2023/07/08 00:00:40;;;;;;;7.18;2.83;;;19.40;78.70;;;;;;5073436;28;20496;-74
2023/07/08 00:03:05;;;;;;;4.82;2.97;;;19.40;78.70;;;;;;5073145;28;20090;-74
2023/07/08 00:05:31;;;;;;;6.80;3.20;;;19.40;79.00;;;;;;5072912;28;20090;-74
2023/07/08 00:07:57;;;;;;;7.10;2.95;;;19.40;79.30;;;;;;5072898;28;20037;-74
2023/07/08 00:10:26;;;;;;;7.13;2.80;;;19.40;79.60;;;;;;5056372;28;20060;-74
2023/07/08 00:12:54;;;;;;;7.40;3.17;;;19.30;79.90;;;;;;5072907;28;20036;-74
2023/07/08 00:15:29;;;;;;;6.40;2.80;;;19.30;79.90;;;;;;5072920;28;20067;-74
2023/07/08 00:17:54;;;;;;;5.97;3.50;;;19.30;80.20;;;;;;5073096;28;20407;-74
2023/07/08 00:20:40;;;;;;;6.10;3.28;;;19.20;80.80;;;;;;5072700;28;20131;-73
2023/07/08 00:23:05;;;;;;;5.28;2.60;;;19.20;80.50;;;;;;5072772;28;20044;-73
2023/07/08 00:25:32;;;;;;;6.07;3.00;;;19.20;81.60;;;;;;5072947;28;20067;-73
2023/07/08 00:27:58;;;;;;;6.55;3.30;;;19.10;81.30;;;;;;5072522;28;20044;-73
2023/07/08 00:30:30;;;;;;;5.70;2.85;;;19.10;81.60;;;;;;5072571;28;20131;-73
2023/07/08 00:32:57;;;;;;;7.53;3.05;;;19.10;81.80;;;;;;5072598;28;20040;-73
2023/07/08 00:35:29;;;;;;;9.52;3.38;;;19.10;81.80;;;;;;5072526;28;20033;-73
2023/07/08 00:38:01;;;;;;;5.30;3.30;;;19.00;82.00;;;;;;5072429;28;20127;-73
2023/07/08 00:40:30;;;;;;;6.05;3.35;;;19.00;81.90;;;;;;5072453;28;20045;-73
2023/07/08 00:42:56;;;;;;;6.90;3.40;;;19.00;82.30;;;;;;5072592;28;20071;-73
2023/07/08 00:45:32;;;;;;;5.60;2.97;;;19.00;82.60;;;;;;5072406;28;20072;-73
2023/07/08 00:48:04;;;;;;;9.98;3.25;;;19.00;82.50;;;;;;5072157;28;20044;-73
2023/07/08 00:50:30;;;;;;;4.85;2.85;;;18.90;82.70;;;;;;5072338;28;20044;-73
2023/07/08 00:53:17;;;;;;;5.45;3.13;;;18.90;83.10;;;;;;5072494;28;20032;-73
2023/07/08 00:55:43;;;;;;;5.80;3.15;;;18.90;83.10;;;;;;5073272;28;20040;-73
2023/07/08 00:58:08;;;;;;;5.65;3.55;;;18.80;83.50;;;;;;5072085;28;20516;-73
2023/07/08 01:00:34;;;;;;;6.32;3.40;;;18.80;83.60;;;;;;5072118;28;20120;-73
2023/07/08 01:03:00;;;;;;;7.15;2.85;;;18.80;83.70;;;;;;5072104;28;20083;-73
2023/07/08 01:05:30;;;;;;;6.07;3.17;;;18.80;84.20;;;;;;5071944;28;20048;-73
2023/07/08 01:08:01;;;;;;;5.80;3.30;;;18.70;84.30;;;;;;5071896;28;20051;-73
2023/07/08 01:10:39;;;;;;;5.05;3.40;;;18.80;84.60;;;;;;5072306;28;20036;-73
2023/07/08 01:13:07;;;;;;;6.18;3.30;;;18.70;84.70;;;;;;5055546;28;20559;-73
2023/07/08 01:15:39;;;;;;;10.77;3.13;;;18.70;84.90;;;;;;5071939;28;20493;-73
2023/07/08 01:18:05;;;;;;;5.07;3.03;;;18.70;85.00;;;;;;5072136;28;20068;-74
2023/07/08 01:20:31;;;;;;;8.13;3.47;;;18.60;85.20;;;;;;5072240;28;20044;-74
2023/07/08 01:22:56;;;;;;;7.13;3.85;;;18.60;85.40;;;;;;5055224;28;20568;-74
2023/07/08 01:25:22;;;;;;;7.15;3.45;;;18.60;85.50;;;;;;5055182;28;20037;-74
2023/07/08 01:27:53;;;;;;;8.98;3.33;;;18.50;85.70;;;;;;5071953;28;20047;-74
2023/07/08 01:30:18;;;;;;;6.30;3.50;;;18.50;86.00;;;;;;5071780;28;20033;-74
2023/07/08 01:32:57;;;;;;;5.72;3.30;;;18.50;86.20;;;;;;5071591;28;20040;-74
2023/07/08 01:35:23;;;;;;;7.32;3.55;;;18.50;86.60;;;;;;5071958;28;20040;-74
2023/07/08 01:37:50;;;;;;;7.95;3.50;;;18.40;86.70;;;;;;5071641;28;20090;-74
2023/07/08 01:40:30;;;;;;;6.93;3.13;;;18.40;86.90;;;;;;5071708;28;20076;-74
2023/07/08 01:42:57;;;;;;;7.03;3.67;;;18.40;87.30;;;;;;5071747;28;20040;-74
2023/07/08 01:45:25;;;;;;;8.82;3.08;;;18.40;88.30;;;;;;5071645;28;20093;-74
2023/07/08 01:47:57;;;;;;;6.70;3.40;;;18.30;87.90;;;;;;5054985;28;20045;-74
2023/07/08 01:50:25;;;;;;;7.68;3.55;;;18.30;88.40;;;;;;5071652;28;20032;-74
2023/07/08 01:52:53;;;;;;;9.18;3.67;;;18.20;88.70;;;;;;5071818;28;20404;-74
2023/07/08 01:55:25;;;;;;;5.97;3.25;;;18.20;89.20;;;;;;5071532;28;20040;-74
2023/07/08 01:57:52;;;;;;;;;;;18.20;89.20;;;;;;5072142;28;20244;-74
2023/07/08 02:00:18;;;;;;;7.68;3.70;;;18.10;89.70;;;;;;5071802;28;19916;-74
2023/07/08 02:02:44;;;;;;;7.55;3.30;;;18.00;90.00;;;;;;5071754;28;20406;-74
2023/07/08 02:05:09;;;;;;;8.18;3.53;;;18.00;90.10;;;;;;5071303;28;20037;-74
2023/07/08 02:07:35;;;;;;;10.38;4.13;;;18.00;90.10;;;;;;5071318;28;20047;-74
2023/07/08 02:10:00;;;;;;;4.93;3.70;;;18.00;90.20;;;;;;5071673;28;20037;-74
2023/07/08 02:12:26;;;;;;;7.68;3.95;;;18.00;90.30;;;;;;5054962;28;20033;-73
2023/07/08 02:14:52;;;;;;;7.20;3.78;;;18.00;90.30;;;;;;5054707;28;20489;-73
2023/07/08 02:17:17;;;;;;;7.38;4.05;;;18.00;90.40;;;;;;5071550;28;20036;-74
2023/07/08 02:19:43;;;;;;;6.43;3.72;;;18.00;90.50;;;;;;5071561;28;20037;-74
2023/07/08 02:22:09;;;;;;;7.95;3.83;;;17.90;90.70;;;;;;5071541;28;20094;-74
2023/07/08 02:24:35;;;;;;;11.73;3.30;;;17.90;90.80;;;;;;5071244;28;20041;-74
2023/07/08 02:27:01;;;;;;;7.72;4.32;;;17.80;90.90;;;;;;5071438;28;20043;-74
2023/07/08 02:29:27;;;;;;;7.53;4.30;;;17.80;91.10;;;;;;5071183;28;20374;-74
2023/07/08 02:31:52;;;;;;;6.07;3.75;;;17.80;91.10;;;;;;5054495;28;20044;-74
2023/07/08 02:34:18;;;;;;;9.70;3.75;;;17.70;91.20;;;;;;5054766;28;20081;-74
2023/07/08 02:36:44;;;;;;;8.45;3.90;;;17.70;91.40;;;;;;5071371;28;20558;-74
2023/07/08 02:39:10;;;;;;;6.40;3.95;;;17.70;91.40;;;;;;5071124;28;20600;-74
2023/07/08 02:41:36;;;;;;;7.07;3.92;;;17.70;91.50;;;;;;5054401;28;20036;-74
2023/07/08 02:44:02;;;;;;;6.85;4.00;;;17.70;91.60;;;;;;5073323;28;20036;-74
2023/07/08 02:46:28;;;;;;;9.07;3.83;;;17.60;91.80;;;;;;5058035;28;20048;-74
2023/07/08 02:48:53;;;;;;;9.70;4.35;;;17.60;91.80;;;;;;5074463;28;20049;-74
2023/07/08 02:51:19;;;;;;;7.82;3.50;;;17.60;91.90;;;;;;5074502;28;20068;-74
2023/07/08 02:53:44;;;;;;;9.25;3.85;;;17.50;92.00;;;;;;5074790;28;20063;-73
2023/07/08 02:56:10;;;;;;;7.13;4.43;;;17.50;92.10;;;;;;5074472;28;20041;-73
2023/07/08 02:58:36;;;;;;;7.30;4.25;;;17.50;92.40;;;;;;5074630;28;20051;-73
2023/07/08 03:01:02;;;;;;;6.43;3.70;;;17.40;92.50;;;;;;5074639;28;20485;-73
2023/07/08 03:03:29;;;;;;;10.75;5.00;;;17.40;92.70;;;;;;5074333;28;20049;-73
2023/07/08 03:06:05;;;;;;;6.95;3.97;;;17.40;92.80;;;;;;5074147;28;20539;-73
2023/07/08 03:08:31;;;;;;;6.35;3.72;;;17.30;92.90;;;;;;5074298;28;20080;-73
2023/07/08 03:11:00;;;;;;;7.03;4.07;;;17.30;93.10;;;;;;5074466;28;20530;-73
2023/07/08 03:13:26;;;;;;;6.45;3.83;;;17.30;93.40;;;;;;5057454;28;20048;-73
2023/07/08 03:15:52;;;;;;;7.35;4.18;;;17.30;93.10;;;;;;5074140;28;20032;-74
2023/07/08 03:18:18;;;;;;;4.90;3.63;;;17.20;93.20;;;;;;5074248;28;20106;-74
2023/07/08 03:20:44;;;;;;;6.80;4.10;;;17.20;93.40;;;;;;5074052;28;20040;-73
2023/07/08 03:23:13;;;;;;;7.80;3.92;;;17.20;93.60;;;;;;5074008;28;20036;-73
2023/07/08 03:25:39;;;;;;;5.85;3.90;;;17.20;93.80;;;;;;5073966;28;20048;-73
2023/07/08 03:28:12;;;;;;;7.57;3.85;;;17.10;93.80;;;;;;5073778;28;20037;-73
2023/07/08 03:30:38;;;;;;;8.18;3.88;;;17.20;93.90;;;;;;5074102;28;20040;-73
2023/07/08 03:33:03;;;;;;;6.40;4.18;;;17.10;94.00;;;;;;5074019;28;20045;-73
2023/07/08 03:35:29;;;;;;;8.70;4.13;;;17.10;94.20;;;;;;5073797;28;20071;-73
2023/07/08 03:37:55;;;;;;;10.10;4.43;;;17.10;94.20;;;;;;5073628;28;20037;-73
2023/07/08 03:40:20;;;;;;;6.40;4.20;;;17.10;94.30;;;;;;5073615;28;20045;-74
2023/07/08 03:42:46;;;;;;;7.95;4.38;;;17.10;94.40;;;;;;5073878;28;20131;-73
2023/07/08 03:45:11;;;;;;;9.85;4.30;;;17.00;94.40;;;;;;5073559;28;20407;-73
2023/07/08 03:47:37;;;;;;;7.93;4.63;;;17.00;94.50;;;;;;5073598;28;20036;-73
2023/07/08 03:50:03;;;;;;;6.90;4.15;;;17.10;94.70;;;;;;5073467;28;20033;-73
2023/07/08 03:52:28;;;;;;;7.57;3.83;;;17.10;94.80;;;;;;5073391;28;20048;-73
2023/07/08 03:54:54;;;;;;;7.43;4.13;;;17.00;94.70;;;;;;5073164;28;20043;-73
2023/07/08 03:57:19;;;;;;;11.82;4.68;;;17.10;94.80;;;;;;5074127;28;20493;-73
2023/07/08 03:59:46;;;;;;;7.97;4.50;;;17.00;94.90;;;;;;5056839;28;20036;-73
2023/07/08 04:02:12;;;;;;;9.05;4.72;;;17.10;95.00;;;;;;5073253;28;20032;-73
2023/07/08 04:04:38;;;;;;;8.43;4.20;;;17.10;95.00;;;;;;5073156;28;20033;-73
2023/07/08 04:07:05;;;;;;;6.93;4.20;;;17.00;95.10;;;;;;5056265;28;20072;-73
2023/07/08 04:09:31;;;;;;;6.38;3.85;;;17.10;95.10;;;;;;5072971;28;20493;-74
2023/07/08 04:11:57;;;;;;;7.00;4.43;;;17.10;95.10;;;;;;5072974;28;20032;-74
2023/07/08 04:14:23;;;;;;;12.75;4.82;;;17.10;95.00;;;;;;5073201;28;20040;-74
2023/07/08 04:16:59;;;;;;;10.25;4.10;;;17.10;95.20;;;;;;5072887;28;20401;-74
2023/07/08 04:19:26;;;;;;;8.25;4.30;;;17.20;95.10;;;;;;5056386;28;20044;-73
2023/07/08 04:21:52;;;;;;;5.95;4.35;;;17.20;95.30;;;;;;5072776;28;20036;-73
2023/07/08 04:24:18;;;;;;;8.07;4.05;;;17.20;95.20;;;;;;5072805;28;20044;-73
2023/07/08 04:26:46;;;;;;;8.90;4.60;;;17.20;95.30;;;;;;5072613;28;20036;-73
2023/07/08 04:29:14;;;;;;;7.72;4.07;;;17.20;95.20;;;;;;5072502;28;20471;-73
2023/07/08 04:31:41;;;;;;;5.60;3.75;;;17.30;95.20;;;;;;5072893;28;20043;-73
2023/07/08 04:34:07;;;;;;;7.20;3.97;;;17.30;95.20;;;;;;5072544;28;20527;-73
2023/07/08 04:36:33;;;;;;;6.45;4.00;;;17.30;95.20;;;;;;5072821;28;20037;-73
2023/07/08 04:38:59;;;;;;;6.20;4.45;;;17.30;95.30;;;;;;5072368;28;20047;-73
2023/07/08 04:41:26;;;;;;;6.63;3.95;;;17.30;95.20;;;;;;5072768;28;20119;-73
2023/07/08 04:43:57;;;;;;;6.10;3.63;;;17.40;95.20;;;;;;5072383;28;20032;-73
2023/07/08 04:46:41;;;;;;;9.00;4.13;;;17.40;95.20;;;;;;5072371;28;20046;-73
2023/07/08 04:49:09;;;;;;;8.18;4.38;;;17.40;95.20;;;;;;5055592;28;20500;-73
2023/07/08 04:51:35;;;;;;;8.23;4.10;;;17.40;95.20;;;;;;5072481;28;20067;-73
2023/07/08 04:54:01;;;;;;;6.70;4.00;;;17.50;95.20;;;;;;5072495;28;20041;-73
2023/07/08 04:56:42;;;;;;;10.27;4.28;;;17.50;95.30;;;;;;5072462;28;20127;-73
2023/07/08 04:59:13;;;;;;;5.82;4.22;;;17.60;95.40;;;;;;5072191;28;20131;-73
2023/07/08 05:01:39;;;;;;;6.00;3.97;;;17.60;95.20;;;;;;5072172;28;20037;-73
2023/07/08 05:04:06;;;;;;;6.82;3.90;;;17.60;95.10;;;;;;5072072;28;20043;-73
2023/07/08 05:06:33;;;;;;;6.40;4.00;;;17.70;95.20;;;;;;5071252;28;20044;-73
2023/07/08 05:08:59;;;;;;;6.25;3.50;;;17.70;95.20;;;;;;5071900;28;20087;-73
2023/07/08 05:11:24;;;;;;;8.15;3.90;;;17.80;95.10;;;;;;5055371;28;20082;-73
2023/07/08 05:13:50;;;;;;;5.20;3.50;;;17.80;94.90;;;;;;5055333;28;20036;-73
2023/07/08 05:16:17;;;;;;;6.82;3.90;;;17.90;94.80;;;;;;5071975;28;20123;-73
2023/07/08 05:18:42;;;;;;;6.10;3.70;;;17.90;94.70;;;;;;5072136;28;20037;-73
2023/07/08 05:21:09;;;;;;;9.05;3.78;;;17.90;94.60;;;;;;5071853;28;20485;-73
2023/07/08 05:23:35;;;;;;;5.38;3.33;;;18.00;94.50;;;;;;5072157;28;20401;-73
2023/07/08 05:26:03;;;;;;;4.90;3.05;;;18.10;94.20;;;;;;5071883;28;20489;-73
2023/07/08 05:28:29;;;;;;;8.85;3.22;;;18.10;93.90;;;;;;5071603;28;20044;-73
2023/07/08 05:30:55;;;;;;;5.10;3.47;;;18.20;93.80;;;;;;5072025;28;20056;-73
2023/07/08 05:33:22;;;;;;;7.80;3.33;;;18.30;93.70;;;;;;5071776;28;20074;-74
2023/07/08 05:35:48;;;;;;;6.15;3.30;;;18.40;93.60;;;;;;5071767;28;20041;-72
2023/07/08 05:38:13;;;;;;;7.70;3.40;;;18.40;93.40;;;;;;5071673;28;20047;-72
2023/07/08 05:40:39;;;;;;;6.40;3.40;;;18.60;93.30;;;;;;5071698;28;20032;-73
2023/07/08 05:43:05;;;;;;;5.35;3.20;;;18.60;93.00;;;;;;5072135;28;20044;-73
2023/07/08 05:45:30;;;;;;;9.13;3.50;;;18.70;92.90;;;;;;5071709;28;20412;-72
2023/07/08 05:47:56;;;;;;;5.32;3.00;;;18.70;92.80;;;;;;5071416;28;20090;-72
2023/07/08 05:50:21;;;;;;;6.07;3.15;;;18.90;92.60;;;;;;5071607;28;20039;-73
2023/07/08 05:52:47;;;;;;;7.45;3.45;;;18.90;92.30;;;;;;5071842;28;20090;-73
2023/07/08 05:55:13;;;;;;;5.35;3.10;;;19.00;92.30;;;;;;5071609;28;20378;-73
2023/07/08 05:57:38;;;;;;;6.50;3.20;;;19.10;92.10;;;;;;5071869;28;20033;-73
2023/07/08 06:00:05;;;;;;;7.43;3.33;;;19.10;91.80;;;;;;5071918;28;20547;-72
2023/07/08 06:02:31;;;;;;;5.90;3.53;;;19.20;91.80;;;;;;5071842;28;20037;-72
2023/07/08 06:04:57;;;;;;;6.32;3.35;;;19.30;91.60;;;;;;5071492;28;20041;-72
2023/07/08 06:07:22;;;;;;;5.07;2.90;;;19.30;91.60;;;;;;5071639;28;20033;-72
2023/07/08 06:09:48;;;;;;;6.05;2.85;;;19.40;91.50;;;;;;5071683;28;20118;-72
2023/07/08 06:12:14;;;;;;;7.13;3.08;;;19.40;91.40;;;;;;5071416;28;20037;-72
2023/07/08 06:14:39;;;;;;;6.75;3.17;;;19.50;91.20;;;;;;5054834;28;20037;-72
2023/07/08 06:17:05;;;;;;;6.95;3.10;;;19.50;91.00;;;;;;5072078;28;20036;-72
2023/07/08 06:19:32;;;;;;;6.60;3.35;;;19.60;91.00;;;;;;5075194;28;20444;-73
2023/07/08 06:21:57;;;;;;;5.63;2.88;;;19.70;90.80;;;;;;5075427;28;20040;-72
2023/07/08 06:24:23;;;;;;;6.60;2.90;;;19.80;90.70;;;;;;5075354;28;20037;-72
2023/07/08 06:26:49;;;;;;;6.90;3.25;;;19.80;90.50;;;;;;5074889;28;20540;-72
2023/07/08 06:29:15;;;;;;;8.50;3.00;;;19.90;90.20;;;;;;5058256;28;20076;-72
2023/07/08 06:31:41;;;;;;;7.00;3.35;;;20.00;90.30;;;;;;5074954;28;20072;-72
2023/07/08 06:34:07;;;;;;;6.15;2.85;;;20.10;90.20;;;;;;5075182;28;20393;-72
2023/07/08 06:36:33;;;;;;;6.78;3.03;;;20.20;90.00;;;;;;5075117;28;20519;-72
2023/07/08 06:38:58;;;;;;;5.45;2.90;;;20.20;89.40;;;;;;5074970;28;20041;-72
2023/07/08 06:41:24;;;;;;;4.32;2.88;;;20.30;89.20;;;;;;5058102;28;20505;-72
2023/07/08 06:43:50;;;;;;;4.88;3.00;;;20.40;88.50;;;;;;5074966;28;20124;-72
2023/07/08 06:46:16;;;;;;;4.68;3.08;;;20.50;88.10;;;;;;5074678;28;20416;-72
2023/07/08 06:48:41;;;;;;;5.60;2.72;;;20.50;88.20;;;;;;5074461;28;20044;-72
2023/07/08 06:51:07;;;;;;;5.18;2.80;;;20.60;87.60;;;;;;5074533;28;20032;-72
2023/07/08 06:53:33;;;;;;;5.47;2.80;;;20.80;87.40;;;;;;5074669;28;20115;-72
2023/07/08 06:55:59;;;;;;;5.95;3.03;;;20.80;86.60;;;;;;5074765;28;20131;-72
2023/07/08 06:58:24;;;;;;;9.65;3.17;;;20.90;86.60;;;;;;5074381;28;20170;-69
2023/07/08 07:00:50;;;;;;;4.93;2.90;;;20.90;85.50;;;;;;5074468;28;20078;-69
2023/07/08 07:03:16;;;;;;;7.15;3.13;;;21.00;86.10;;;;;;5074378;28;20037;-69
2023/07/08 07:05:42;;;;;;;5.80;2.60;;;21.10;85.40;;;;;;5074240;28;20047;-69
2023/07/08 07:08:08;;;;;;;4.68;3.40;;;21.20;85.20;;;;;;5074141;28;20040;-69
2023/07/08 07:10:34;;;;;;;5.35;2.63;;;21.30;85.80;;;;;;5074576;28;20039;-69
2023/07/08 07:13:00;;;;;;;6.60;3.03;;;21.30;84.70;;;;;;5074449;28;20370;-69
2023/07/08 07:15:25;;;;;;;5.88;2.63;;;21.40;84.70;;;;;;5057457;28;20500;-69
2023/07/08 07:17:51;;;;;;;6.38;2.47;;;21.50;84.70;;;;;;5074069;28;20032;-69
2023/07/08 07:20:16;;;;;;;4.40;3.17;;;21.60;84.10;;;;;;5074064;28;20047;-69
2023/07/08 07:22:42;;;;;;;5.43;2.70;;;21.80;83.80;;;;;;5074532;28;20035;-69
2023/07/08 07:25:08;;;;;;;6.30;2.75;;;21.90;83.40;;;;;;5075246;28;20408;-72
2023/07/08 07:27:33;;;;;;;5.93;2.88;;;22.00;82.40;;;;;;5073859;28;20481;-72
2023/07/08 07:29:59;;;;;;;5.43;2.70;;;22.10;82.20;;;;;;5073005;28;20496;-72
2023/07/08 07:32:25;;;;;;;6.03;2.60;;;22.20;81.50;;;;;;5073811;28;20503;-72
2023/07/08 07:34:51;;;;;;;5.97;2.78;;;22.30;81.10;;;;;;5073823;28;20040;-72
2023/07/08 07:37:19;;;;;;;7.55;3.03;;;22.40;80.70;;;;;;5073709;28;20043;-72
2023/07/08 07:39:45;;;;;;;6.47;2.70;;;22.50;79.80;;;;;;5073742;28;20051;-72
2023/07/08 07:42:12;;;;;;;4.75;2.65;;;22.60;79.20;;;;;;5073780;28;20044;-72
2023/07/08 07:44:41;;;;;;;10.70;3.08;;;22.70;79.10;;;;;;5073631;28;20123;-72
2023/07/08 07:47:09;;;;;;;4.55;2.50;;;22.80;78.70;;;;;;5073771;28;20493;-72
2023/07/08 07:49:36;;;;;;;6.15;3.10;;;22.90;78.90;;;;;;5073519;28;20055;-72
2023/07/08 07:52:02;;;;;;;5.40;2.35;;;23.00;78.70;;;;;;5073482;28;20413;-72
2023/07/08 07:54:28;;;;;;;5.20;2.50;;;23.20;78.30;;;;;;5073465;28;20409;-72
2023/07/08 07:56:53;;;;;;;4.00;2.55;;;23.40;77.20;;;;;;5073532;28;20024;-72
2023/07/08 07:59:19;;;;;;;6.28;2.63;;;23.50;76.20;;;;;;5056723;28;20098;-72
2023/07/08 08:01:44;;;;;;;4.18;2.47;;;23.60;75.60;;;;;;5073243;28;20048;-72
2023/07/08 08:04:11;;;;;;;5.93;2.65;;;23.70;74.90;;;;;;5073282;28;20076;-72
2023/07/08 08:06:37;;;;;;;6.50;3.00;;;23.80;74.20;;;;;;5073151;28;20503;-73
2023/07/08 08:09:04;;;;;;;4.95;2.50;;;24.00;73.80;;;;;;5073139;28;20417;-72
2023/07/08 08:11:30;;;;;;;5.88;2.70;;;24.10;73.30;;;;;;5073055;28;20036;-72
2023/07/08 08:13:56;;;;;;;6.05;2.65;;;24.20;73.60;;;;;;5072992;28;20040;-73
2023/07/08 08:16:22;;;;;;;5.43;2.40;;;24.30;73.70;;;;;;5056344;28;20484;-73
2023/07/08 08:18:48;;;;;;;6.57;2.70;;;24.40;72.40;;;;;;5072805;28;20044;-72
2023/07/08 08:21:14;;;;;;;5.70;2.83;;;24.50;72.20;;;;;;5056248;28;20040;-72
2023/07/08 08:23:39;;;;;;;4.63;2.50;;;24.70;71.80;;;;;;5072867;28;20041;-72
2023/07/08 08:26:05;;;;;;;6.43;2.38;;;24.80;71.50;;;;;;5072792;28;20047;-72
2023/07/08 08:28:30;;;;;;;5.03;2.75;;;24.90;70.80;;;;;;5072809;28;20109;-72
2023/07/08 08:30:56;;;;;;;7.55;2.75;;;25.00;70.20;;;;;;5072701;28;20041;-72
2023/07/08 08:33:22;;;;;;;6.50;2.95;;;25.10;70.70;;;;;;5072695;28;20044;-72
2023/07/08 08:35:48;;;;;;;5.97;2.80;;;25.20;70.10;;;;;;5072658;28;20040;-72
2023/07/08 08:38:13;;;;;;;5.63;2.60;;;25.30;70.10;;;;;;5072444;28;20074;-72
2023/07/08 08:40:41;;;;;;;7.35;2.35;;;25.40;69.70;;;;;;5072571;28;20043;-72
2023/07/08 08:43:16;;;;;;;6.68;2.80;;;25.50;69.30;;;;;;5072653;28;20049;-72
2023/07/08 08:46:00;;;;;;;5.93;2.50;;;25.60;69.70;;;;;;5072702;28;20079;-72
2023/07/08 08:48:30;;;;;;;8.07;2.80;;;25.80;69.20;;;;;;5072269;28;20048;-72
2023/07/08 08:51:00;;;;;;;6.30;2.53;;;25.90;69.10;;;;;;5072359;28;20043;-72
2023/07/08 08:53:26;;;;;;;5.78;2.58;;;26.00;68.20;;;;;;5072319;28;20044;-72
2023/07/08 08:56:05;;;;;;;5.90;2.63;;;26.10;67.70;;;;;;5072324;28;20045;-72
2023/07/08 08:58:36;;;;;;;5.30;2.70;;;26.30;67.30;;;;;;5072456;28;20043;-72
2023/07/08 09:01:11;;;;;;;7.90;3.05;;;26.50;66.90;;;;;;5072585;28;20493;-72
2023/07/08 09:03:37;;;;;;;7.15;2.40;;;26.50;66.80;;;;;;5072431;28;20111;-72
2023/07/08 09:06:11;;;;;;;8.40;2.50;;;26.70;67.10;;;;;;5071894;28;20509;-72
2023/07/08 09:08:37;;;;;;;4.85;2.65;;;26.90;67.30;;;;;;5055359;28;20413;-72
2023/07/08 09:11:22;;;;;;;7.53;3.35;;;27.00;66.00;;;;;;5072090;28;20079;-72
2023/07/08 09:13:51;;;;;;;7.25;3.63;;;27.00;65.30;;;;;;5072440;28;20127;-72
2023/07/08 09:16:49;;;;;;;6.68;2.70;;;27.20;65.50;;;;;;5072353;28;20105;-72
2023/07/08 09:19:24;;;;;;;5.30;2.90;;;27.30;66.00;;;;;;5071996;28;20123;-73
2023/07/08 09:22:03;;;;;;;6.28;3.00;;;27.50;65.40;;;;;;5072119;28;20408;-73
2023/07/08 09:24:47;;;;;;;4.13;2.25;;;27.60;64.70;;;;;;5071943;28;20386;-73
2023/07/08 09:27:13;;;;;;;8.93;2.85;;;27.80;64.30;;;;;;5055192;28;20037;-73
2023/07/08 09:29:38;;;;;;;6.78;2.80;;;27.90;65.00;;;;;;5071846;28;20066;-73
2023/07/08 09:32:25;;;;;;;8.63;3.08;;;27.90;65.30;;;;;;5071808;28;20045;-72
2023/07/08 09:34:54;;;;;;;6.18;3.00;;;28.00;64.40;;;;;;5072078;28;20040;-73
2023/07/08 09:37:45;;;;;;;8.75;3.13;;;28.10;63.60;;;;;;5072008;28;20053;-72
2023/07/08 09:40:18;;;;;;;9.50;2.83;;;28.30;63.70;;;;;;5073066;28;20072;-72
2023/07/08 09:42:49;;;;;;;4.68;3.00;;;28.40;62.80;;;;;;5073577;28;20056;-72
2023/07/08 09:45:19;;;;;;;6.43;2.70;;;28.50;62.50;;;;;;5071973;28;20097;-73
2023/07/08 09:47:45;;;;;;;4.10;2.67;;;28.50;62.90;;;;;;5071707;28;20040;-72
2023/07/08 09:50:22;;;;;;;3.88;2.35;;;28.70;62.90;;;;;;5071714;28;20045;-72
2023/07/08 09:52:49;;;;;;;4.95;2.60;;;28.90;62.50;;;;;;5073376;28;20400;-72
2023/07/08 09:55:17;;;;;;;6.30;2.60;;;28.90;61.30;;;;;;5075727;28;20040;-72
2023/07/08 09:57:46;;;;;;;5.80;2.75;;;29.00;61.00;;;;;;5075900;28;20515;-72
2023/07/08 10:00:15;;;;;;;6.45;2.63;;;29.10;61.40;;;;;;5075686;28;20029;-72
2023/07/08 10:02:46;;;;;;;5.28;3.47;;;29.20;60.60;;;;;;5075641;28;20043;-72
2023/07/08 10:05:39;;;;;;;5.38;2.30;;;29.30;62.20;;;;;;5075422;28;20044;-72
2023/07/08 10:08:17;;;;;;;6.88;5.22;;;29.40;62.00;;;;;;5073724;28;20057;-72
2023/07/08 10:10:44;;;;;;;8.45;3.13;;;29.50;62.20;;;;;;5075650;28;20044;-73
2023/07/08 10:13:40;;;;;;;4.75;3.00;;;29.60;61.20;;;;;;5075548;28;20466;-73
2023/07/08 10:16:25;;;;;;;6.47;2.88;;;29.70;61.40;;;;;;5075409;28;20051;-73
2023/07/08 10:18:51;;;;;;;5.65;2.90;;;29.80;61.10;;;;;;5075535;28;20044;-72
2023/07/08 10:21:46;;;;;;;4.97;2.90;;;29.90;60.60;;;;;;5075316;28;20068;-72
2023/07/08 10:24:11;;;;;;;5.30;2.60;;;30.10;59.50;;;;;;5056638;28;20405;-72
2023/07/08 10:26:38;;;;;;;5.20;3.00;;;30.20;58.40;;;;;;5075102;28;20044;-73
2023/07/08 10:29:21;;;;;;;5.50;2.50;;;30.30;58.10;;;;;;5074951;28;20079;-72
2023/07/08 10:32:12;;;;;;;5.93;2.78;;;30.40;58.70;;;;;;5075239;28;20072;-73
2023/07/08 10:35:08;;;;;;;4.70;3.05;;;30.50;57.70;;;;;;5074997;28;20040;-73
2023/07/08 10:37:47;;;;;;;5.72;3.45;;;30.60;58.90;;;;;;5074825;28;20414;-72
2023/07/08 10:40:16;;;;;;;6.10;3.45;;;30.70;57.70;;;;;;5075150;28;20087;-72
2023/07/08 10:43:23;;;;;;;7.82;3.28;;;30.80;57.40;;;;;;5075129;28;20052;-72
2023/07/08 10:45:54;;;;;;;4.00;2.40;;;31.00;57.10;;;;;;5074311;28;20080;-73
2023/07/08 10:48:26;;;;;;;9.43;2.65;;;31.10;56.90;;;;;;5074868;28;20099;-73
2023/07/08 10:51:11;;;;;;;7.50;3.03;;;31.30;56.30;;;;;;5074715;28;20041;-72
2023/07/08 10:53:48;;;;;;;5.65;2.70;;;31.40;56.90;;;;;;5074628;28;20559;-72
2023/07/08 10:56:23;;;;;;;4.43;2.92;;;31.60;54.40;;;;;;5074600;28;20404;-72
2023/07/08 10:59:16;;;;;;;5.90;2.92;;;31.50;53.70;;;;;;5074517;28;20483;-72
2023/07/08 11:01:59;;;;;;;6.63;2.70;;;31.60;53.60;;;;;;5074808;28;20067;-73
2023/07/08 11:04:40;;;;;;;7.40;2.80;;;31.70;54.50;;;;;;5073643;28;20048;-73
2023/07/08 11:07:21;;;;;;;6.68;2.58;;;31.80;54.60;;;;;;5057610;28;20044;-72
2023/07/08 11:09:53;;;;;;;6.63;2.72;;;32.00;53.90;;;;;;5074354;28;20044;-73
2023/07/08 11:12:29;;;;;;;6.18;2.83;;;32.10;53.30;;;;;;5075492;28;20033;-73
2023/07/08 11:15:06;;;;;;;8.00;3.08;;;32.20;53.80;;;;;;5057775;28;20041;-73
2023/07/08 11:17:46;;;;;;;7.53;3.05;;;32.30;53.20;;;;;;5074285;28;20119;-72
2023/07/08 11:20:21;;;;;;;3.83;3.00;;;32.50;51.80;;;;;;5074528;28;20524;-72
2023/07/08 11:22:59;;;;;;;7.68;2.95;;;32.60;52.10;;;;;;5074409;28;20507;-72
2023/07/08 11:25:27;;;;;;;5.95;2.83;;;32.80;51.60;;;;;;5074216;28;20143;-73
2023/07/08 11:27:57;;;;;;;4.57;2.70;;;32.90;49.50;;;;;;5074050;28;20036;-72
2023/07/08 11:30:27;;;;;;;4.68;2.95;;;32.90;49.20;;;;;;5074257;28;20041;-72
2023/07/08 11:33:02;;;;;;;7.15;2.80;;;33.00;49.30;;;;;;5074271;28;20043;-72
2023/07/08 11:35:40;;;;;;;4.35;3.00;;;33.10;47.10;;;;;;5057426;28;20032;-73
2023/07/08 11:38:09;;;;;;;4.93;2.45;;;33.10;47.10;;;;;;5074503;28;20048;-72
2023/07/08 11:40:50;;;;;;;4.53;3.08;;;33.20;47.70;;;;;;5074608;28;20513;-73
2023/07/08 11:43:17;;;;;;;5.60;2.85;;;33.20;47.20;;;;;;5074124;28;20055;-72
2023/07/08 11:45:43;;;;;;;4.82;3.10;;;33.20;47.60;;;;;;5074022;28;20036;-73
2023/07/08 11:48:29;;;;;;;6.15;2.88;;;33.30;46.70;;;;;;5073803;28;20045;-72
2023/07/08 11:50:55;;;;;;;5.80;2.80;;;33.40;46.50;;;;;;5073885;28;20036;-72
2023/07/08 11:53:30;;;;;;;6.05;3.13;;;33.40;47.20;;;;;;5073955;28;20040;-73
2023/07/08 11:56:23;;;;;;;5.28;2.80;;;33.50;47.80;;;;;;5075052;28;20182;-73
2023/07/08 11:58:48;;;;;;;7.40;2.78;;;33.50;46.00;;;;;;5071647;28;20048;-73
2023/07/08 12:01:32;;;;;;;3.72;3.05;;;33.50;46.70;;;;;;5073503;28;20047;-73
2023/07/08 12:04:29;;;;;;;6.65;2.78;;;33.70;48.40;;;;;;5073580;28;20048;-73
2023/07/08 12:07:03;;;;;;;8.73;3.35;;;33.90;45.10;;;;;;5073160;28;20534;-72
2023/07/08 12:09:36;;;;;;;3.00;2.65;;;34.00;44.40;;;;;;5073260;28;20041;-72
2023/07/08 12:12:07;;;;;;;7.35;3.78;;;34.10;45.40;;;;;;5073445;28;20489;-72
2023/07/08 12:14:33;;;;;;;6.20;3.28;;;34.10;44.10;;;;;;5073310;28;20048;-73
2023/07/08 12:16:59;;;;;;;5.82;3.10;;;34.20;43.80;;;;;;5073181;28;20036;-72
2023/07/08 12:19:28;;;;;;;5.13;3.90;;;34.30;45.70;;;;;;5073224;28;20045;-73
2023/07/08 12:21:55;;;;;;;4.47;3.53;;;34.30;43.60;;;;;;5073311;28;20041;-73
2023/07/08 12:24:26;;;;;;;8.27;3.60;;;34.50;44.00;;;;;;5073452;28;20068;-73
2023/07/08 12:26:52;;;;;;;5.10;3.30;;;34.70;44.70;;;;;;5073381;28;20036;-72
2023/07/08 12:29:17;;;;;;;10.10;4.22;;;34.80;43.50;;;;;;5072996;28;20040;-72
2023/07/08 12:31:43;;;;;;;6.80;4.13;;;34.90;43.50;;;;;;5073123;28;20051;-73
2023/07/08 12:34:16;;;;;;;7.88;3.35;;;34.80;41.60;;;;;;5073230;28;20127;-73
2023/07/08 12:36:43;;;;;;;5.88;3.85;;;34.90;41.80;;;;;;5072968;28;20400;-72
2023/07/08 12:39:14;;;;;;;4.95;3.85;;;34.80;41.70;;;;;;5073213;28;20094;-73
2023/07/08 12:41:42;;;;;;;5.97;3.78;;;34.90;41.70;;;;;;5073020;28;20488;-73
2023/07/08 12:44:26;;;;;;;5.05;3.72;;;34.90;42.20;;;;;;5073494;28;20037;-73
2023/07/08 12:46:54;;;;;;;8.52;3.70;;;35.00;43.20;;;;;;5074722;28;20072;-72
2023/07/08 12:49:21;;;;;;;6.13;4.20;;;34.90;42.30;;;;;;5072960;28;20051;-72
2023/07/08 12:51:47;;;;;;;6.57;3.63;;;34.90;41.90;;;;;;5073354;28;20044;-72
2023/07/08 12:54:14;;;;;;;7.43;3.88;;;35.00;42.40;;;;;;5073365;28;20101;-72
2023/07/08 12:56:44;;;;;;;5.05;3.97;;;35.10;42.30;;;;;;5072849;28;20477;-73